sensor_id;sensor_type;location;lat;lon;timestamp;P1;durP1;ratioP1;P2;durP2;ratioP2
2858;SDS011;1437;53.250;10.406;2023-04-25T00:02:19;10.90;;;5.93;;
2858;SDS011;1437;53.250;10.406;2023-04-25T00:04:47;5.97;;;3.63;;
2858;SDS011;1437;53.250;10.406;2023-04-25T00:07:16;6.67;;;4.67;;
2858;SDS011;1437;53.250;10.406;2023-04-25T00:09:45;6.53;;;4.87;;
2858;SDS011;1437;53.250;10.406;2023-04-25T00:12:13;8.70;;;4.17;;
2858;SDS011;1437;53.250;10.406;2023-04-25T00:14:44;6.90;;;4.17;;
2858;SDS011;1437;53.250;10.406;2023-04-25T00:17:12;8.40;;;4.80;;
2858;SDS011;1437;53.250;10.406;2023-04-25T00:19:41;6.80;;;4.23;;
2858;SDS011;1437;53.250;10.406;2023-04-25T00:22:11;5.80;;;4.53;;
2858;SDS011;1437;53.250;10.406;2023-04-25T00:24:40;8.60;;;4.77;;
2858;SDS011;1437;53.250;10.406;2023-04-25T00:27:09;8.13;;;5.20;;
2858;SDS011;1437;53.250;10.406;2023-04-25T00:29:38;8.33;;;4.30;;
2858;SDS011;1437;53.250;10.406;2023-04-25T00:32:08;7.17;;;3.63;;
2858;SDS011;1437;53.250;10.406;2023-04-25T00:34:36;6.43;;;4.80;;
2858;SDS011;1437;53.250;10.406;2023-04-25T00:37:06;5.60;;;4.30;;
2858;SDS011;1437;53.250;10.406;2023-04-25T00:39:34;5.90;;;4.30;;
2858;SDS011;1437;53.250;10.406;2023-04-25T00:42:06;21.83;;;5.63;;
2858;SDS011;1437;53.250;10.406;2023-04-25T00:44:35;13.20;;;5.00;;
2858;SDS011;1437;53.250;10.406;2023-04-25T00:47:03;7.33;;;4.70;;
2858;SDS011;1437;53.250;10.406;2023-04-25T00:49:33;7.43;;;4.90;;
2858;SDS011;1437;53.250;10.406;2023-04-25T00:52:08;9.00;;;4.90;;
2858;SDS011;1437;53.250;10.406;2023-04-25T00:54:36;7.13;;;5.03;;
2858;SDS011;1437;53.250;10.406;2023-04-25T00:57:05;8.83;;;4.77;;
2858;SDS011;1437;53.250;10.406;2023-04-25T00:59:37;6.10;;;4.60;;
2858;SDS011;1437;53.250;10.406;2023-04-25T01:02:06;5.97;;;4.90;;
2858;SDS011;1437;53.250;10.406;2023-04-25T01:04:37;10.20;;;5.03;;
2858;SDS011;1437;53.250;10.406;2023-04-25T01:07:05;8.53;;;5.60;;
2858;SDS011;1437;53.250;10.406;2023-04-25T01:09:34;6.43;;;5.70;;
2858;SDS011;1437;53.250;10.406;2023-04-25T01:12:06;8.33;;;5.30;;
2858;SDS011;1437;53.250;10.406;2023-04-25T01:14:37;9.27;;;5.60;;
2858;SDS011;1437;53.250;10.406;2023-04-25T01:17:06;9.63;;;5.57;;
2858;SDS011;1437;53.250;10.406;2023-04-25T01:19:35;8.17;;;5.53;;
2858;SDS011;1437;53.250;10.406;2023-04-25T01:22:07;7.57;;;6.73;;
2858;SDS011;1437;53.250;10.406;2023-04-25T01:24:37;9.23;;;5.80;;
2858;SDS011;1437;53.250;10.406;2023-04-25T01:27:05;10.00;;;5.50;;
2858;SDS011;1437;53.250;10.406;2023-04-25T01:29:34;10.40;;;4.40;;
2858;SDS011;1437;53.250;10.406;2023-04-25T01:32:06;9.33;;;4.30;;
2858;SDS011;1437;53.250;10.406;2023-04-25T01:34:34;7.77;;;4.43;;
2858;SDS011;1437;53.250;10.406;2023-04-25T01:37:03;9.27;;;3.43;;
2858;SDS011;1437;53.250;10.406;2023-04-25T01:39:34;9.23;;;3.83;;
2858;SDS011;1437;53.250;10.406;2023-04-25T01:42:06;7.80;;;3.70;;
2858;SDS011;1437;53.250;10.406;2023-04-25T01:44:35;8.50;;;3.83;;
2858;SDS011;1437;53.250;10.406;2023-04-25T01:47:03;7.30;;;2.80;;
2858;SDS011;1437;53.250;10.406;2023-04-25T01:49:32;6.77;;;4.03;;
2858;SDS011;1437;53.250;10.406;2023-04-25T01:52:00;9.90;;;3.97;;
2858;SDS011;1437;53.250;10.406;2023-04-25T01:54:36;14.57;;;3.63;;
2858;SDS011;1437;53.250;10.406;2023-04-25T01:57:09;10.87;;;3.50;;
2858;SDS011;1437;53.250;10.406;2023-04-25T01:59:37;12.23;;;3.50;;
2858;SDS011;1437;53.250;10.406;2023-04-25T02:02:06;10.37;;;3.90;;
2858;SDS011;1437;53.250;10.406;2023-04-25T02:04:34;11.90;;;3.50;;
2858;SDS011;1437;53.250;10.406;2023-04-25T02:07:03;10.90;;;3.20;;
2858;SDS011;1437;53.250;10.406;2023-04-25T02:09:31;19.93;;;4.20;;
2858;SDS011;1437;53.250;10.406;2023-04-25T02:12:10;6.57;;;3.40;;
2858;SDS011;1437;53.250;10.406;2023-04-25T02:14:39;17.33;;;4.60;;
2858;SDS011;1437;53.250;10.406;2023-04-25T02:17:08;7.80;;;3.40;;
2858;SDS011;1437;53.250;10.406;2023-04-25T02:19:40;17.73;;;4.37;;
2858;SDS011;1437;53.250;10.406;2023-04-25T02:22:13;15.43;;;3.90;;
2858;SDS011;1437;53.250;10.406;2023-04-25T02:24:43;8.83;;;3.40;;
2858;SDS011;1437;53.250;10.406;2023-04-25T02:27:13;15.37;;;3.87;;
2858;SDS011;1437;53.250;10.406;2023-04-25T02:29:42;16.20;;;3.07;;
2858;SDS011;1437;53.250;10.406;2023-04-25T02:32:11;11.87;;;3.50;;
2858;SDS011;1437;53.250;10.406;2023-04-25T02:34:39;14.40;;;3.03;;
2858;SDS011;1437;53.250;10.406;2023-04-25T02:37:09;18.77;;;3.83;;
2858;SDS011;1437;53.250;10.406;2023-04-25T02:39:38;16.40;;;3.90;;
2858;SDS011;1437;53.250;10.406;2023-04-25T02:42:08;12.90;;;4.40;;
2858;SDS011;1437;53.250;10.406;2023-04-25T02:44:39;16.33;;;3.50;;
2858;SDS011;1437;53.250;10.406;2023-04-25T02:47:07;10.97;;;3.70;;
2858;SDS011;1437;53.250;10.406;2023-04-25T02:49:38;17.27;;;3.27;;
2858;SDS011;1437;53.250;10.406;2023-04-25T02:52:13;8.97;;;2.80;;
2858;SDS011;1437;53.250;10.406;2023-04-25T02:54:43;14.90;;;4.30;;
2858;SDS011;1437;53.250;10.406;2023-04-25T02:57:11;12.37;;;3.40;;
2858;SDS011;1437;53.250;10.406;2023-04-25T02:59:41;15.47;;;6.10;;
2858;SDS011;1437;53.250;10.406;2023-04-25T03:02:10;11.10;;;3.20;;
2858;SDS011;1437;53.250;10.406;2023-04-25T03:04:38;20.73;;;3.53;;
2858;SDS011;1437;53.250;10.406;2023-04-25T03:07:06;14.37;;;3.43;;
2858;SDS011;1437;53.250;10.406;2023-04-25T03:09:35;12.00;;;3.60;;
2858;SDS011;1437;53.250;10.406;2023-04-25T03:12:06;17.53;;;3.97;;
2858;SDS011;1437;53.250;10.406;2023-04-25T03:14:35;15.23;;;4.93;;
2858;SDS011;1437;53.250;10.406;2023-04-25T03:17:05;20.13;;;4.37;;
2858;SDS011;1437;53.250;10.406;2023-04-25T03:19:34;10.83;;;3.80;;
2858;SDS011;1437;53.250;10.406;2023-04-25T03:22:05;17.10;;;5.23;;
2858;SDS011;1437;53.250;10.406;2023-04-25T03:24:33;13.93;;;2.87;;
2858;SDS011;1437;53.250;10.406;2023-04-25T03:27:03;16.20;;;3.97;;
2858;SDS011;1437;53.250;10.406;2023-04-25T03:29:31;16.70;;;4.37;;
2858;SDS011;1437;53.250;10.406;2023-04-25T03:32:00;20.37;;;4.37;;
2858;SDS011;1437;53.250;10.406;2023-04-25T03:34:37;10.40;;;3.07;;
2858;SDS011;1437;53.250;10.406;2023-04-25T03:37:05;14.30;;;3.30;;
2858;SDS011;1437;53.250;10.406;2023-04-25T03:39:33;17.07;;;4.40;;
2858;SDS011;1437;53.250;10.406;2023-04-25T03:42:06;8.80;;;3.00;;
2858;SDS011;1437;53.250;10.406;2023-04-25T03:44:35;16.03;;;3.97;;
2858;SDS011;1437;53.250;10.406;2023-04-25T03:47:03;18.43;;;4.03;;
2858;SDS011;1437;53.250;10.406;2023-04-25T03:49:35;18.70;;;4.10;;
2858;SDS011;1437;53.250;10.406;2023-04-25T03:52:06;12.43;;;2.87;;
2858;SDS011;1437;53.250;10.406;2023-04-25T03:54:37;17.27;;;4.67;;
2858;SDS011;1437;53.250;10.406;2023-04-25T03:57:08;15.17;;;4.10;;
2858;SDS011;1437;53.250;10.406;2023-04-25T03:59:39;14.70;;;3.13;;
2858;SDS011;1437;53.250;10.406;2023-04-25T04:02:08;16.63;;;3.93;;
2858;SDS011;1437;53.250;10.406;2023-04-25T04:04:36;22.43;;;3.93;;
2858;SDS011;1437;53.250;10.406;2023-04-25T04:07:06;13.40;;;3.20;;
2858;SDS011;1437;53.250;10.406;2023-04-25T04:09:34;14.13;;;2.90;;
2858;SDS011;1437;53.250;10.406;2023-04-25T04:12:09;16.60;;;3.40;;
2858;SDS011;1437;53.250;10.406;2023-04-25T04:14:37;17.80;;;4.20;;
2858;SDS011;1437;53.250;10.406;2023-04-25T04:17:06;15.33;;;4.03;;
2858;SDS011;1437;53.250;10.406;2023-04-25T04:19:35;13.40;;;3.70;;
2858;SDS011;1437;53.250;10.406;2023-04-25T04:22:08;10.30;;;3.17;;
2858;SDS011;1437;53.250;10.406;2023-04-25T04:24:36;11.50;;;2.57;;
2858;SDS011;1437;53.250;10.406;2023-04-25T04:27:09;17.77;;;3.40;;
2858;SDS011;1437;53.250;10.406;2023-04-25T04:29:39;17.53;;;4.57;;
2858;SDS011;1437;53.250;10.406;2023-04-25T04:32:09;14.57;;;3.20;;
2858;SDS011;1437;53.250;10.406;2023-04-25T04:34:38;15.53;;;3.97;;
2858;SDS011;1437;53.250;10.406;2023-04-25T04:37:13;13.77;;;3.60;;
2858;SDS011;1437;53.250;10.406;2023-04-25T04:39:47;18.73;;;4.40;;
2858;SDS011;1437;53.250;10.406;2023-04-25T04:42:16;13.83;;;4.30;;
2858;SDS011;1437;53.250;10.406;2023-04-25T04:44:48;18.33;;;5.27;;
2858;SDS011;1437;53.250;10.406;2023-04-25T04:47:20;9.77;;;3.33;;
2858;SDS011;1437;53.250;10.406;2023-04-25T04:49:54;19.13;;;4.27;;
2858;SDS011;1437;53.250;10.406;2023-04-25T04:52:28;14.00;;;4.17;;
2858;SDS011;1437;53.250;10.406;2023-04-25T04:55:01;16.30;;;4.60;;
2858;SDS011;1437;53.250;10.406;2023-04-25T04:57:39;9.93;;;2.70;;
2858;SDS011;1437;53.250;10.406;2023-04-25T05:00:19;7.93;;;3.30;;
2858;SDS011;1437;53.250;10.406;2023-04-25T05:02:54;8.03;;;2.40;;
2858;SDS011;1437;53.250;10.406;2023-04-25T05:05:26;11.43;;;3.30;;
2858;SDS011;1437;53.250;10.406;2023-04-25T05:07:59;19.17;;;3.50;;
2858;SDS011;1437;53.250;10.406;2023-04-25T05:10:29;14.20;;;3.30;;
2858;SDS011;1437;53.250;10.406;2023-04-25T05:13:00;17.33;;;3.93;;
2858;SDS011;1437;53.250;10.406;2023-04-25T05:15:31;19.13;;;3.63;;
2858;SDS011;1437;53.250;10.406;2023-04-25T05:17:59;11.07;;;2.87;;
2858;SDS011;1437;53.250;10.406;2023-04-25T05:20:29;16.17;;;3.17;;
2858;SDS011;1437;53.250;10.406;2023-04-25T05:22:59;6.80;;;2.13;;
2858;SDS011;1437;53.250;10.406;2023-04-25T05:25:27;14.40;;;2.87;;
2858;SDS011;1437;53.250;10.406;2023-04-25T05:27:55;10.80;;;2.57;;
2858;SDS011;1437;53.250;10.406;2023-04-25T05:30:27;13.50;;;3.40;;
2858;SDS011;1437;53.250;10.406;2023-04-25T05:32:55;11.17;;;3.47;;
2858;SDS011;1437;53.250;10.406;2023-04-25T05:35:24;11.50;;;2.87;;
2858;SDS011;1437;53.250;10.406;2023-04-25T05:37:52;11.60;;;2.83;;
2858;SDS011;1437;53.250;10.406;2023-04-25T05:40:22;11.50;;;3.57;;
2858;SDS011;1437;53.250;10.406;2023-04-25T05:42:50;12.93;;;3.70;;
2858;SDS011;1437;53.250;10.406;2023-04-25T05:45:19;9.10;;;2.70;;
2858;SDS011;1437;53.250;10.406;2023-04-25T05:47:48;12.23;;;2.23;;
2858;SDS011;1437;53.250;10.406;2023-04-25T05:50:18;15.60;;;3.67;;
2858;SDS011;1437;53.250;10.406;2023-04-25T05:52:47;13.73;;;3.10;;
2858;SDS011;1437;53.250;10.406;2023-04-25T05:55:15;12.00;;;2.67;;
2858;SDS011;1437;53.250;10.406;2023-04-25T05:57:49;10.33;;;3.20;;
2858;SDS011;1437;53.250;10.406;2023-04-25T06:00:18;8.73;;;2.73;;
2858;SDS011;1437;53.250;10.406;2023-04-25T06:02:50;14.20;;;3.03;;
2858;SDS011;1437;53.250;10.406;2023-04-25T06:05:43;9.77;;;2.50;;
2858;SDS011;1437;53.250;10.406;2023-04-25T06:08:15;6.83;;;2.40;;
2858;SDS011;1437;53.250;10.406;2023-04-25T06:10:46;6.00;;;2.20;;
2858;SDS011;1437;53.250;10.406;2023-04-25T06:13:19;25.90;;;4.97;;
2858;SDS011;1437;53.250;10.406;2023-04-25T06:15:48;13.70;;;2.67;;
2858;SDS011;1437;53.250;10.406;2023-04-25T06:18:20;9.47;;;2.70;;
2858;SDS011;1437;53.250;10.406;2023-04-25T06:20:54;16.43;;;2.50;;
2858;SDS011;1437;53.250;10.406;2023-04-25T06:23:26;8.40;;;2.30;;
2858;SDS011;1437;53.250;10.406;2023-04-25T06:25:54;10.87;;;3.60;;
2858;SDS011;1437;53.250;10.406;2023-04-25T06:28:26;12.30;;;3.10;;
2858;SDS011;1437;53.250;10.406;2023-04-25T06:30:55;12.97;;;2.97;;
2858;SDS011;1437;53.250;10.406;2023-04-25T06:33:23;12.70;;;3.30;;
2858;SDS011;1437;53.250;10.406;2023-04-25T06:35:53;8.50;;;3.03;;
2858;SDS011;1437;53.250;10.406;2023-04-25T06:38:22;13.97;;;2.53;;
2858;SDS011;1437;53.250;10.406;2023-04-25T06:40:51;10.13;;;2.30;;
2858;SDS011;1437;53.250;10.406;2023-04-25T06:43:25;8.63;;;2.00;;
2858;SDS011;1437;53.250;10.406;2023-04-25T06:45:57;9.60;;;2.60;;
2858;SDS011;1437;53.250;10.406;2023-04-25T06:48:36;17.40;;;3.67;;
2858;SDS011;1437;53.250;10.406;2023-04-25T06:51:22;4.27;;;1.87;;
2858;SDS011;1437;53.250;10.406;2023-04-25T06:53:56;8.20;;;2.83;;
2858;SDS011;1437;53.250;10.406;2023-04-25T06:56:28;10.50;;;2.60;;
2858;SDS011;1437;53.250;10.406;2023-04-25T06:58:59;8.27;;;2.53;;
2858;SDS011;1437;53.250;10.406;2023-04-25T07:01:29;19.73;;;2.63;;
2858;SDS011;1437;53.250;10.406;2023-04-25T07:03:57;10.80;;;2.63;;
2858;SDS011;1437;53.250;10.406;2023-04-25T07:06:26;5.83;;;1.83;;
2858;SDS011;1437;53.250;10.406;2023-04-25T07:08:55;14.60;;;2.73;;
2858;SDS011;1437;53.250;10.406;2023-04-25T07:11:27;13.43;;;3.00;;
2858;SDS011;1437;53.250;10.406;2023-04-25T07:17:02;5.97;;;2.57;;
2858;SDS011;1437;53.250;10.406;2023-04-25T07:19:35;14.13;;;2.67;;
2858;SDS011;1437;53.250;10.406;2023-04-25T07:22:11;8.90;;;1.87;;
2858;SDS011;1437;53.250;10.406;2023-04-25T07:25:06;6.47;;;2.00;;
2858;SDS011;1437;53.250;10.406;2023-04-25T07:27:55;8.10;;;2.50;;
2858;SDS011;1437;53.250;10.406;2023-04-25T07:30:24;10.57;;;2.53;;
2858;SDS011;1437;53.250;10.406;2023-04-25T07:33:01;8.90;;;2.00;;
2858;SDS011;1437;53.250;10.406;2023-04-25T07:35:35;9.60;;;1.80;;
2858;SDS011;1437;53.250;10.406;2023-04-25T07:38:06;9.40;;;2.30;;
2858;SDS011;1437;53.250;10.406;2023-04-25T07:40:37;8.00;;;2.20;;
2858;SDS011;1437;53.250;10.406;2023-04-25T07:43:19;7.47;;;1.80;;
2858;SDS011;1437;53.250;10.406;2023-04-25T07:45:51;16.23;;;2.20;;
2858;SDS011;1437;53.250;10.406;2023-04-25T07:48:32;5.07;;;2.30;;
2858;SDS011;1437;53.250;10.406;2023-04-25T07:51:06;10.97;;;2.63;;
2858;SDS011;1437;53.250;10.406;2023-04-25T07:53:43;11.33;;;2.33;;
2858;SDS011;1437;53.250;10.406;2023-04-25T07:56:44;13.60;;;3.60;;
2858;SDS011;1437;53.250;10.406;2023-04-25T07:59:14;8.30;;;2.00;;
2858;SDS011;1437;53.250;10.406;2023-04-25T08:01:45;11.60;;;2.70;;
2858;SDS011;1437;53.250;10.406;2023-04-25T08:04:25;7.63;;;2.90;;
2858;SDS011;1437;53.250;10.406;2023-04-25T08:06:54;6.90;;;1.50;;
2858;SDS011;1437;53.250;10.406;2023-04-25T08:09:27;8.50;;;1.63;;
2858;SDS011;1437;53.250;10.406;2023-04-25T08:12:00;8.33;;;2.57;;
2858;SDS011;1437;53.250;10.406;2023-04-25T08:14:38;6.70;;;2.50;;
2858;SDS011;1437;53.250;10.406;2023-04-25T08:17:14;7.60;;;2.27;;
2858;SDS011;1437;53.250;10.406;2023-04-25T08:19:55;7.03;;;1.57;;
2858;SDS011;1437;53.250;10.406;2023-04-25T08:22:30;9.63;;;2.00;;
2858;SDS011;1437;53.250;10.406;2023-04-25T08:25:04;7.67;;;1.93;;
2858;SDS011;1437;53.250;10.406;2023-04-25T08:27:36;8.40;;;1.67;;
2858;SDS011;1437;53.250;10.406;2023-04-25T08:30:18;3.73;;;1.40;;
2858;SDS011;1437;53.250;10.406;2023-04-25T08:33:07;9.70;;;2.43;;
2858;SDS011;1437;53.250;10.406;2023-04-25T08:35:48;7.57;;;1.60;;
2858;SDS011;1437;53.250;10.406;2023-04-25T08:38:18;6.30;;;1.73;;
2858;SDS011;1437;53.250;10.406;2023-04-25T08:40:51;5.00;;;1.53;;
2858;SDS011;1437;53.250;10.406;2023-04-25T08:43:24;4.97;;;1.80;;
2858;SDS011;1437;53.250;10.406;2023-04-25T08:45:55;6.83;;;1.53;;
2858;SDS011;1437;53.250;10.406;2023-04-25T08:48:29;8.57;;;1.33;;
2858;SDS011;1437;53.250;10.406;2023-04-25T08:51:08;5.60;;;1.30;;
2858;SDS011;1437;53.250;10.406;2023-04-25T08:53:44;13.07;;;2.47;;
2858;SDS011;1437;53.250;10.406;2023-04-25T08:56:18;4.50;;;1.80;;
2858;SDS011;1437;53.250;10.406;2023-04-25T08:58:50;6.20;;;1.37;;
2858;SDS011;1437;53.250;10.406;2023-04-25T09:01:29;5.93;;;1.80;;
2858;SDS011;1437;53.250;10.406;2023-04-25T09:04:06;8.83;;;1.70;;
2858;SDS011;1437;53.250;10.406;2023-04-25T09:06:37;3.90;;;1.93;;
2858;SDS011;1437;53.250;10.406;2023-04-25T09:09:07;8.93;;;2.20;;
2858;SDS011;1437;53.250;10.406;2023-04-25T09:11:36;7.70;;;1.40;;
2858;SDS011;1437;53.250;10.406;2023-04-25T09:14:13;10.50;;;1.57;;
2858;SDS011;1437;53.250;10.406;2023-04-25T09:19:38;7.43;;;1.47;;
2858;SDS011;1437;53.250;10.406;2023-04-25T09:22:13;4.70;;;1.13;;
2858;SDS011;1437;53.250;10.406;2023-04-25T09:24:48;12.43;;;1.53;;
2858;SDS011;1437;53.250;10.406;2023-04-25T09:27:27;4.57;;;1.77;;
2858;SDS011;1437;53.250;10.406;2023-04-25T09:29:56;10.03;;;1.87;;
2858;SDS011;1437;53.250;10.406;2023-04-25T09:32:31;7.97;;;2.00;;
2858;SDS011;1437;53.250;10.406;2023-04-25T09:35:00;6.97;;;1.37;;
2858;SDS011;1437;53.250;10.406;2023-04-25T09:37:31;3.70;;;1.60;;
2858;SDS011;1437;53.250;10.406;2023-04-25T09:40:04;3.17;;;1.07;;
2858;SDS011;1437;53.250;10.406;2023-04-25T09:42:42;5.33;;;2.10;;
2858;SDS011;1437;53.250;10.406;2023-04-25T09:45:16;6.10;;;1.00;;
2858;SDS011;1437;53.250;10.406;2023-04-25T09:47:44;5.07;;;0.90;;
2858;SDS011;1437;53.250;10.406;2023-04-25T09:50:16;3.77;;;1.27;;
2858;SDS011;1437;53.250;10.406;2023-04-25T09:53:08;3.93;;;1.00;;
2858;SDS011;1437;53.250;10.406;2023-04-25T09:55:40;9.87;;;1.40;;
2858;SDS011;1437;53.250;10.406;2023-04-25T10:00:51;5.20;;;1.30;;
2858;SDS011;1437;53.250;10.406;2023-04-25T10:01:38;7.17;;;1.07;;
2858;SDS011;1437;53.250;10.406;2023-04-25T10:04:22;2.90;;;0.80;;
2858;SDS011;1437;53.250;10.406;2023-04-25T10:06:51;5.43;;;0.90;;
2858;SDS011;1437;53.250;10.406;2023-04-25T10:09:24;5.00;;;1.40;;
2858;SDS011;1437;53.250;10.406;2023-04-25T10:11:55;4.50;;;1.17;;
2858;SDS011;1437;53.250;10.406;2023-04-25T10:14:33;3.97;;;1.20;;
2858;SDS011;1437;53.250;10.406;2023-04-25T10:17:05;2.43;;;0.70;;
2858;SDS011;1437;53.250;10.406;2023-04-25T10:19:35;2.30;;;1.03;;
2858;SDS011;1437;53.250;10.406;2023-04-25T10:22:17;3.00;;;1.10;;
2858;SDS011;1437;53.250;10.406;2023-04-25T10:24:53;6.20;;;1.70;;
2858;SDS011;1437;53.250;10.406;2023-04-25T10:27:23;3.43;;;1.10;;
2858;SDS011;1437;53.250;10.406;2023-04-25T10:30:03;5.90;;;1.37;;
2858;SDS011;1437;53.250;10.406;2023-04-25T10:32:36;6.50;;;1.83;;
2858;SDS011;1437;53.250;10.406;2023-04-25T10:35:11;6.20;;;1.30;;
2858;SDS011;1437;53.250;10.406;2023-04-25T10:37:56;2.40;;;0.70;;
2858;SDS011;1437;53.250;10.406;2023-04-25T10:40:38;8.80;;;1.77;;
2858;SDS011;1437;53.250;10.406;2023-04-25T10:45:54;2.70;;;1.20;;
2858;SDS011;1437;53.250;10.406;2023-04-25T10:48:30;3.23;;;1.10;;
2858;SDS011;1437;53.250;10.406;2023-04-25T10:51:15;4.43;;;1.23;;
2858;SDS011;1437;53.250;10.406;2023-04-25T10:53:56;5.97;;;1.97;;
2858;SDS011;1437;53.250;10.406;2023-04-25T10:59:38;3.43;;;1.23;;
2858;SDS011;1437;53.250;10.406;2023-04-25T11:02:24;6.40;;;2.70;;
2858;SDS011;1437;53.250;10.406;2023-04-25T11:05:07;7.03;;;1.00;;
2858;SDS011;1437;53.250;10.406;2023-04-25T11:07:51;3.63;;;1.07;;
2858;SDS011;1437;53.250;10.406;2023-04-25T11:10:25;5.10;;;2.10;;
2858;SDS011;1437;53.250;10.406;2023-04-25T11:12:57;5.80;;;1.20;;
2858;SDS011;1437;53.250;10.406;2023-04-25T11:18:27;4.33;;;1.90;;
2858;SDS011;1437;53.250;10.406;2023-04-25T11:21:18;4.13;;;1.40;;
2858;SDS011;1437;53.250;10.406;2023-04-25T11:23:53;9.10;;;1.60;;
2858;SDS011;1437;53.250;10.406;2023-04-25T11:26:23;4.93;;;0.97;;
2858;SDS011;1437;53.250;10.406;2023-04-25T11:29:00;5.70;;;1.33;;
2858;SDS011;1437;53.250;10.406;2023-04-25T11:31:59;7.07;;;1.90;;
2858;SDS011;1437;53.250;10.406;2023-04-25T11:34:59;8.23;;;1.87;;
2858;SDS011;1437;53.250;10.406;2023-04-25T11:37:35;3.90;;;1.03;;
2858;SDS011;1437;53.250;10.406;2023-04-25T11:40:06;1.50;;;0.73;;
2858;SDS011;1437;53.250;10.406;2023-04-25T11:42:45;3.13;;;1.20;;
2858;SDS011;1437;53.250;10.406;2023-04-25T11:45:15;3.10;;;1.10;;
2858;SDS011;1437;53.250;10.406;2023-04-25T11:47:53;3.17;;;1.57;;
2858;SDS011;1437;53.250;10.406;2023-04-25T11:50:26;5.90;;;0.90;;
2858;SDS011;1437;53.250;10.406;2023-04-25T11:53:00;3.23;;;0.90;;
2858;SDS011;1437;53.250;10.406;2023-04-25T11:55:48;6.00;;;1.10;;
2858;SDS011;1437;53.250;10.406;2023-04-25T11:58:17;4.77;;;3.00;;
2858;SDS011;1437;53.250;10.406;2023-04-25T12:00:54;3.43;;;1.27;;
2858;SDS011;1437;53.250;10.406;2023-04-25T12:03:46;3.10;;;1.00;;
2858;SDS011;1437;53.250;10.406;2023-04-25T12:06:21;2.30;;;0.97;;
2858;SDS011;1437;53.250;10.406;2023-04-25T12:09:02;4.67;;;1.40;;
2858;SDS011;1437;53.250;10.406;2023-04-25T12:11:53;4.20;;;1.37;;
2858;SDS011;1437;53.250;10.406;2023-04-25T12:14:45;4.13;;;1.00;;
2858;SDS011;1437;53.250;10.406;2023-04-25T12:17:47;2.70;;;1.30;;
2858;SDS011;1437;53.250;10.406;2023-04-25T12:20:21;8.13;;;1.20;;
2858;SDS011;1437;53.250;10.406;2023-04-25T12:22:52;5.00;;;1.80;;
2858;SDS011;1437;53.250;10.406;2023-04-25T12:25:34;3.73;;;1.10;;
2858;SDS011;1437;53.250;10.406;2023-04-25T12:28:13;5.73;;;1.17;;
2858;SDS011;1437;53.250;10.406;2023-04-25T12:30:57;5.07;;;1.70;;
2858;SDS011;1437;53.250;10.406;2023-04-25T12:33:32;4.97;;;2.27;;
2858;SDS011;1437;53.250;10.406;2023-04-25T12:36:16;10.33;;;1.33;;
2858;SDS011;1437;53.250;10.406;2023-04-25T12:38:58;8.33;;;1.87;;
2858;SDS011;1437;53.250;10.406;2023-04-25T12:41:29;3.70;;;1.10;;
2858;SDS011;1437;53.250;10.406;2023-04-25T12:44:03;2.07;;;0.60;;
2858;SDS011;1437;53.250;10.406;2023-04-25T12:46:36;6.50;;;1.70;;
2858;SDS011;1437;53.250;10.406;2023-04-25T12:49:10;5.17;;;1.40;;
2858;SDS011;1437;53.250;10.406;2023-04-25T12:51:39;7.33;;;1.37;;
2858;SDS011;1437;53.250;10.406;2023-04-25T12:54:20;4.73;;;1.10;;
2858;SDS011;1437;53.250;10.406;2023-04-25T12:56:54;3.90;;;1.20;;
2858;SDS011;1437;53.250;10.406;2023-04-25T12:59:29;9.23;;;1.20;;
2858;SDS011;1437;53.250;10.406;2023-04-25T13:01:59;4.67;;;1.00;;
2858;SDS011;1437;53.250;10.406;2023-04-25T13:04:38;3.40;;;1.23;;
2858;SDS011;1437;53.250;10.406;2023-04-25T13:07:20;6.80;;;1.30;;
2858;SDS011;1437;53.250;10.406;2023-04-25T13:09:56;3.20;;;0.70;;
2858;SDS011;1437;53.250;10.406;2023-04-25T13:12:34;7.10;;;1.10;;
2858;SDS011;1437;53.250;10.406;2023-04-25T13:15:29;3.60;;;0.97;;
2858;SDS011;1437;53.250;10.406;2023-04-25T13:18:20;3.53;;;1.23;;
2858;SDS011;1437;53.250;10.406;2023-04-25T13:20:54;7.30;;;1.23;;
2858;SDS011;1437;53.250;10.406;2023-04-25T13:23:24;5.80;;;1.50;;
2858;SDS011;1437;53.250;10.406;2023-04-25T13:25:55;3.43;;;1.00;;
2858;SDS011;1437;53.250;10.406;2023-04-25T13:28:30;4.63;;;1.30;;
2858;SDS011;1437;53.250;10.406;2023-04-25T13:31:06;4.53;;;1.30;;
2858;SDS011;1437;53.250;10.406;2023-04-25T13:33:34;4.07;;;1.00;;
2858;SDS011;1437;53.250;10.406;2023-04-25T13:36:03;5.47;;;1.00;;
2858;SDS011;1437;53.250;10.406;2023-04-25T13:38:32;4.70;;;1.17;;
2858;SDS011;1437;53.250;10.406;2023-04-25T13:41:07;3.40;;;1.10;;
2858;SDS011;1437;53.250;10.406;2023-04-25T13:43:41;5.07;;;0.90;;
2858;SDS011;1437;53.250;10.406;2023-04-25T13:46:20;6.20;;;1.13;;
2858;SDS011;1437;53.250;10.406;2023-04-25T13:48:55;2.30;;;0.87;;
2858;SDS011;1437;53.250;10.406;2023-04-25T13:51:24;2.93;;;1.03;;
2858;SDS011;1437;53.250;10.406;2023-04-25T13:53:54;4.20;;;1.00;;
2858;SDS011;1437;53.250;10.406;2023-04-25T13:56:24;4.60;;;1.57;;
2858;SDS011;1437;53.250;10.406;2023-04-25T13:58:57;4.70;;;1.27;;
2858;SDS011;1437;53.250;10.406;2023-04-25T14:01:42;3.63;;;0.80;;
2858;SDS011;1437;53.250;10.406;2023-04-25T14:04:39;4.07;;;1.10;;
2858;SDS011;1437;53.250;10.406;2023-04-25T14:07:20;4.73;;;0.90;;
2858;SDS011;1437;53.250;10.406;2023-04-25T14:09:54;3.67;;;1.30;;
2858;SDS011;1437;53.250;10.406;2023-04-25T14:12:34;3.30;;;1.20;;
2858;SDS011;1437;53.250;10.406;2023-04-25T14:15:08;2.57;;;1.10;;
2858;SDS011;1437;53.250;10.406;2023-04-25T14:17:47;6.70;;;1.40;;
2858;SDS011;1437;53.250;10.406;2023-04-25T14:20:25;3.47;;;1.33;;
2858;SDS011;1437;53.250;10.406;2023-04-25T14:22:54;3.53;;;1.37;;
2858;SDS011;1437;53.250;10.406;2023-04-25T14:25:27;5.53;;;1.10;;
2858;SDS011;1437;53.250;10.406;2023-04-25T14:28:00;6.73;;;1.50;;
2858;SDS011;1437;53.250;10.406;2023-04-25T14:30:32;7.53;;;1.60;;
2858;SDS011;1437;53.250;10.406;2023-04-25T14:33:03;5.50;;;1.70;;
2858;SDS011;1437;53.250;10.406;2023-04-25T14:38:34;6.33;;;1.37;;
2858;SDS011;1437;53.250;10.406;2023-04-25T14:41:06;6.70;;;1.60;;
2858;SDS011;1437;53.250;10.406;2023-04-25T14:43:41;8.53;;;1.20;;
2858;SDS011;1437;53.250;10.406;2023-04-25T14:46:12;8.53;;;1.53;;
2858;SDS011;1437;53.250;10.406;2023-04-25T14:48:49;7.37;;;1.80;;
2858;SDS011;1437;53.250;10.406;2023-04-25T14:52:22;13.47;;;2.13;;
2858;SDS011;1437;53.250;10.406;2023-04-25T14:55:03;3.60;;;1.73;;
2858;SDS011;1437;53.250;10.406;2023-04-25T14:57:33;6.87;;;1.50;;
2858;SDS011;1437;53.250;10.406;2023-04-25T15:00:05;2.37;;;1.00;;
2858;SDS011;1437;53.250;10.406;2023-04-25T15:02:40;7.67;;;2.00;;
2858;SDS011;1437;53.250;10.406;2023-04-25T15:05:09;5.55;;;1.50;;
2858;SDS011;1437;53.250;10.406;2023-04-25T15:07:40;2.57;;;1.30;;
2858;SDS011;1437;53.250;10.406;2023-04-25T15:10:23;5.80;;;1.60;;
2858;SDS011;1437;53.250;10.406;2023-04-25T15:12:55;5.90;;;1.50;;
2858;SDS011;1437;53.250;10.406;2023-04-25T15:18:26;5.00;;;1.00;;
2858;SDS011;1437;53.250;10.406;2023-04-25T15:20:59;2.50;;;0.97;;
2858;SDS011;1437;53.250;10.406;2023-04-25T15:23:38;1.97;;;0.73;;
2858;SDS011;1437;53.250;10.406;2023-04-25T15:26:08;5.37;;;1.77;;
2858;SDS011;1437;53.250;10.406;2023-04-25T15:28:41;5.77;;;0.97;;
2858;SDS011;1437;53.250;10.406;2023-04-25T15:37:11;5.90;;;1.70;;
2858;SDS011;1437;53.250;10.406;2023-04-25T15:39:55;6.30;;;1.73;;
2858;SDS011;1437;53.250;10.406;2023-04-25T15:42:34;14.37;;;1.80;;
2858;SDS011;1437;53.250;10.406;2023-04-25T15:45:06;8.00;;;1.50;;
2858;SDS011;1437;53.250;10.406;2023-04-25T15:47:41;6.80;;;1.40;;
2858;SDS011;1437;53.250;10.406;2023-04-25T15:50:16;5.40;;;1.50;;
2858;SDS011;1437;53.250;10.406;2023-04-25T15:52:53;4.20;;;1.30;;
2858;SDS011;1437;53.250;10.406;2023-04-25T15:55:22;4.90;;;1.70;;
2858;SDS011;1437;53.250;10.406;2023-04-25T15:57:53;13.73;;;2.23;;
2858;SDS011;1437;53.250;10.406;2023-04-25T16:00:26;3.73;;;0.80;;
2858;SDS011;1437;53.250;10.406;2023-04-25T16:03:15;7.30;;;1.90;;
2858;SDS011;1437;53.250;10.406;2023-04-25T16:06:02;2.90;;;0.90;;